sensor_id;sensor_type;location;lat;lon;timestamp;pressure;altitude;pressure_sealevel;temperature;humidity
10718;BME280;13513;42.700;23.124;2023-03-15T00:01:43;91947.65;;;5.31;64.21
10718;BME280;13513;42.700;23.124;2023-03-15T00:04:13;91953.86;;;5.28;63.91
10718;BME280;13513;42.700;23.124;2023-03-15T00:06:44;91938.88;;;5.07;63.66
10718;BME280;13513;42.700;23.124;2023-03-15T00:09:15;91948.00;;;5.04;63.51
10718;BME280;13513;42.700;23.124;2023-03-15T00:11:45;91945.39;;;5.21;61.98
10718;BME280;13513;42.700;23.124;2023-03-15T00:14:16;91936.97;;;5.19;62.82
10718;BME280;13513;42.700;23.124;2023-03-15T00:16:47;91941.84;;;5.29;63.02
10718;BME280;13513;42.700;23.124;2023-03-15T00:19:24;91941.73;;;5.38;62.02
10718;BME280;13513;42.700;23.124;2023-03-15T00:21:55;91942.88;;;5.61;61.64
10718;BME280;13513;42.700;23.124;2023-03-15T00:24:26;91942.88;;;5.61;61.64
10718;BME280;13513;42.700;23.124;2023-03-15T00:26:56;91939.55;;;5.68;61.93
10718;BME280;13513;42.700;23.124;2023-03-15T00:29:27;91929.00;;;5.63;62.27
10718;BME280;13513;42.700;23.124;2023-03-15T00:31:58;91928.80;;;5.67;62.74
10718;BME280;13513;42.700;23.124;2023-03-15T00:34:30;91928.80;;;5.67;62.74
10718;BME280;13513;42.700;23.124;2023-03-15T00:37:02;91926.71;;;5.67;62.69
10718;BME280;13513;42.700;23.124;2023-03-15T00:39:33;91917.13;;;5.39;63.30
10718;BME280;13513;42.700;23.124;2023-03-15T00:42:05;91910.17;;;5.47;63.26
10718;BME280;13513;42.700;23.124;2023-03-15T00:44:36;91905.42;;;5.63;63.41
10718;BME280;13513;42.700;23.124;2023-03-15T00:47:08;91903.52;;;5.59;60.84
10718;BME280;13513;42.700;23.124;2023-03-15T00:49:41;91894.34;;;5.59;61.92
10718;BME280;13513;42.700;23.124;2023-03-15T00:52:11;91893.78;;;5.73;61.81
10718;BME280;13513;42.700;23.124;2023-03-15T00:55:00;91901.61;;;5.52;62.95
10718;BME280;13513;42.700;23.124;2023-03-15T00:57:15;91903.64;;;5.66;63.30
10718;BME280;13513;42.700;23.124;2023-03-15T00:59:47;91897.77;;;5.78;63.66
10718;BME280;13513;42.700;23.124;2023-03-15T01:02:16;91890.32;;;5.87;62.66
10718;BME280;13513;42.700;23.124;2023-03-15T01:04:48;91886.02;;;6.00;59.21
10718;BME280;13513;42.700;23.124;2023-03-15T01:07:17;91883.66;;;6.01;58.97
10718;BME280;13513;42.700;23.124;2023-03-15T01:09:48;91884.84;;;6.10;57.64
10718;BME280;13513;42.700;23.124;2023-03-15T01:12:19;91885.08;;;6.08;60.80
10718;BME280;13513;42.700;23.124;2023-03-15T01:14:51;91884.59;;;6.11;60.89
10718;BME280;13513;42.700;23.124;2023-03-15T01:17:21;91882.64;;;6.02;60.69
10718;BME280;13513;42.700;23.124;2023-03-15T01:19:52;91886.34;;;6.03;60.23
10718;BME280;13513;42.700;23.124;2023-03-15T01:22:23;91865.46;;;6.13;59.65
10718;BME280;13513;42.700;23.124;2023-03-15T01:24:54;91862.47;;;6.05;58.79
10718;BME280;13513;42.700;23.124;2023-03-15T01:27:27;91853.87;;;6.09;58.77
10718;BME280;13513;42.700;23.124;2023-03-15T01:30:00;91854.73;;;6.15;58.49
10718;BME280;13513;42.700;23.124;2023-03-15T01:32:32;91859.01;;;6.21;56.29
10718;BME280;13513;42.700;23.124;2023-03-15T01:35:02;91854.53;;;6.21;56.34
10718;BME280;13513;42.700;23.124;2023-03-15T01:37:33;91853.18;;;6.16;57.24
10718;BME280;13513;42.700;23.124;2023-03-15T01:40:05;91843.34;;;6.28;57.45
10718;BME280;13513;42.700;23.124;2023-03-15T01:43:23;91833.13;;;6.32;57.59
10718;BME280;13513;42.700;23.124;2023-03-15T01:48:14;91834.45;;;6.32;56.67
10718;BME280;13513;42.700;23.124;2023-03-15T01:50:46;91833.83;;;5.98;58.33
10718;BME280;13513;42.700;23.124;2023-03-15T01:53:16;91838.59;;;6.01;59.45
10718;BME280;13513;42.700;23.124;2023-03-15T01:55:47;91825.19;;;5.98;60.21
10718;BME280;13513;42.700;23.124;2023-03-15T01:58:19;91813.83;;;5.90;57.48
10718;BME280;13513;42.700;23.124;2023-03-15T02:00:51;91820.44;;;5.76;59.36
10718;BME280;13513;42.700;23.124;2023-03-15T02:03:37;91822.69;;;5.67;60.64
10718;BME280;13513;42.700;23.124;2023-03-15T02:06:07;91818.86;;;5.53;61.29
10718;BME280;13513;42.700;23.124;2023-03-15T02:08:41;91814.34;;;5.49;60.34
10718;BME280;13513;42.700;23.124;2023-03-15T02:11:12;91811.56;;;5.58;61.32
10718;BME280;13513;42.700;23.124;2023-03-15T02:13:45;91804.55;;;5.63;61.42
10718;BME280;13513;42.700;23.124;2023-03-15T02:16:20;91803.56;;;5.67;62.18
10718;BME280;13513;42.700;23.124;2023-03-15T02:18:53;91802.77;;;5.66;62.10
10718;BME280;13513;42.700;23.124;2023-03-15T02:21:33;91798.70;;;5.56;60.49
10718;BME280;13513;42.700;23.124;2023-03-15T02:26:55;91796.72;;;5.66;58.66
10718;BME280;13513;42.700;23.124;2023-03-15T02:29:30;91802.26;;;5.67;60.35
10718;BME280;13513;42.700;23.124;2023-03-15T02:32:04;91804.02;;;5.61;59.61
10718;BME280;13513;42.700;23.124;2023-03-15T02:34:36;91801.09;;;5.39;61.11
10718;BME280;13513;42.700;23.124;2023-03-15T02:37:06;91801.09;;;5.39;61.11
10718;BME280;13513;42.700;23.124;2023-03-15T02:39:37;91795.56;;;5.35;63.41
10718;BME280;13513;42.700;23.124;2023-03-15T02:42:08;91790.51;;;5.29;62.85
10718;BME280;13513;42.700;23.124;2023-03-15T02:44:40;91790.51;;;5.29;62.85
10718;BME280;13513;42.700;23.124;2023-03-15T02:47:13;91794.67;;;5.27;62.33
10718;BME280;13513;42.700;23.124;2023-03-15T02:49:45;91782.56;;;5.24;61.00
10718;BME280;13513;42.700;23.124;2023-03-15T02:52:15;91779.86;;;5.16;59.82
10718;BME280;13513;42.700;23.124;2023-03-15T02:54:47;91769.57;;;5.10;59.62
10718;BME280;13513;42.700;23.124;2023-03-15T02:57:19;91762.49;;;5.10;60.21
10718;BME280;13513;42.700;23.124;2023-03-15T02:59:49;91754.70;;;4.94;58.62
10718;BME280;13513;42.700;23.124;2023-03-15T03:02:19;91754.70;;;4.94;58.62
10718;BME280;13513;42.700;23.124;2023-03-15T03:04:50;91742.86;;;4.91;58.94
10718;BME280;13513;42.700;23.124;2023-03-15T03:07:21;91748.42;;;4.95;58.33
10718;BME280;13513;42.700;23.124;2023-03-15T03:09:52;91751.97;;;4.70;58.61
10718;BME280;13513;42.700;23.124;2023-03-15T03:12:23;91751.53;;;4.75;59.11
10718;BME280;13513;42.700;23.124;2023-03-15T03:14:54;91739.50;;;4.74;59.43
10718;BME280;13513;42.700;23.124;2023-03-15T03:17:25;91743.45;;;4.77;60.92
10718;BME280;13513;42.700;23.124;2023-03-15T03:19:56;91752.58;;;4.74;60.71
10718;BME280;13513;42.700;23.124;2023-03-15T03:22:27;91753.08;;;4.74;60.56
10718;BME280;13513;42.700;23.124;2023-03-15T03:24:58;91749.84;;;4.86;60.98
10718;BME280;13513;42.700;23.124;2023-03-15T03:27:29;91758.01;;;4.70;59.66
10718;BME280;13513;42.700;23.124;2023-03-15T03:29:59;91751.42;;;4.84;60.00
10718;BME280;13513;42.700;23.124;2023-03-15T03:32:30;91751.42;;;4.84;60.00
10718;BME280;13513;42.700;23.124;2023-03-15T03:35:02;91751.55;;;4.94;58.00
10718;BME280;13513;42.700;23.124;2023-03-15T03:37:33;91751.55;;;4.94;58.00
10718;BME280;13513;42.700;23.124;2023-03-15T03:40:06;91737.77;;;4.82;58.83
10718;BME280;13513;42.700;23.124;2023-03-15T03:42:36;91737.77;;;4.82;58.83
10718;BME280;13513;42.700;23.124;2023-03-15T03:45:10;91740.06;;;4.76;61.44
10718;BME280;13513;42.700;23.124;2023-03-15T03:47:41;91735.39;;;4.81;60.81
10718;BME280;13513;42.700;23.124;2023-03-15T03:50:12;91732.09;;;4.88;61.15
10718;BME280;13513;42.700;23.124;2023-03-15T03:52:43;91722.25;;;4.95;59.24
10718;BME280;13513;42.700;23.124;2023-03-15T03:55:14;91723.17;;;5.05;59.98
10718;BME280;13513;42.700;23.124;2023-03-15T03:57:45;91715.16;;;5.14;59.33
10718;BME280;13513;42.700;23.124;2023-03-15T04:00:17;91710.76;;;5.17;60.14
10718;BME280;13513;42.700;23.124;2023-03-15T04:02:48;91727.08;;;5.24;60.32
10718;BME280;13513;42.700;23.124;2023-03-15T04:05:20;91706.52;;;5.11;60.70
10718;BME280;13513;42.700;23.124;2023-03-15T04:07:53;91710.59;;;5.05;58.65
10718;BME280;13513;42.700;23.124;2023-03-15T04:10:23;91712.08;;;4.98;57.65
10718;BME280;13513;42.700;23.124;2023-03-15T04:12:57;91718.17;;;5.04;58.59
10718;BME280;13513;42.700;23.124;2023-03-15T04:15:27;91716.18;;;5.11;55.89
10718;BME280;13513;42.700;23.124;2023-03-15T04:17:59;91716.42;;;5.09;55.03
10718;BME280;13513;42.700;23.124;2023-03-15T04:20:29;91714.13;;;5.13;55.55
10718;BME280;13513;42.700;23.124;2023-03-15T04:22:59;91703.48;;;5.00;55.79
10718;BME280;13513;42.700;23.124;2023-03-15T04:25:30;91707.20;;;5.04;57.22
10718;BME280;13513;42.700;23.124;2023-03-15T04:28:01;91707.37;;;5.17;60.08
10718;BME280;13513;42.700;23.124;2023-03-15T04:30:32;91711.08;;;5.21;60.55
10718;BME280;13513;42.700;23.124;2023-03-15T04:33:04;91708.67;;;5.17;56.12
10718;BME280;13513;42.700;23.124;2023-03-15T04:35:35;91708.67;;;5.17;56.12
10718;BME280;13513;42.700;23.124;2023-03-15T04:38:07;91711.56;;;5.18;56.46
10718;BME280;13513;42.700;23.124;2023-03-15T04:40:37;91701.86;;;5.18;55.45
10718;BME280;13513;42.700;23.124;2023-03-15T04:43:09;91707.58;;;5.34;56.59
10718;BME280;13513;42.700;23.124;2023-03-15T04:45:40;91706.80;;;5.36;58.36
10718;BME280;13513;42.700;23.124;2023-03-15T04:48:11;91698.67;;;5.35;59.60
10718;BME280;13513;42.700;23.124;2023-03-15T04:50:42;91692.87;;;5.33;59.06
10718;BME280;13513;42.700;23.124;2023-03-15T04:53:14;91682.48;;;5.38;57.02
10718;BME280;13513;42.700;23.124;2023-03-15T04:55:45;91677.09;;;5.50;55.42
10718;BME280;13513;42.700;23.124;2023-03-15T04:58:16;91673.79;;;5.59;55.02
10718;BME280;13513;42.700;23.124;2023-03-15T05:00:48;91682.81;;;5.47;58.70
10718;BME280;13513;42.700;23.124;2023-03-15T05:03:19;91682.81;;;5.47;58.70
10718;BME280;13513;42.700;23.124;2023-03-15T05:05:50;91693.87;;;5.27;59.02
10718;BME280;13513;42.700;23.124;2023-03-15T05:08:21;91684.02;;;5.13;57.42
10718;BME280;13513;42.700;23.124;2023-03-15T05:10:52;91684.20;;;5.09;63.09
10718;BME280;13513;42.700;23.124;2023-03-15T05:13:22;91687.09;;;5.29;59.67
10718;BME280;13513;42.700;23.124;2023-03-15T05:15:53;91690.14;;;5.45;58.85
10718;BME280;13513;42.700;23.124;2023-03-15T05:18:25;91692.99;;;5.67;59.23
10718;BME280;13513;42.700;23.124;2023-03-15T05:20:56;91684.25;;;5.81;63.97
10718;BME280;13513;42.700;23.124;2023-03-15T05:23:27;91692.73;;;5.66;63.39
10718;BME280;13513;42.700;23.124;2023-03-15T05:25:58;91692.73;;;5.66;63.39
10718;BME280;13513;42.700;23.124;2023-03-15T05:28:27;91679.34;;;5.87;61.00
10718;BME280;13513;42.700;23.124;2023-03-15T05:30:59;91699.86;;;5.49;61.25
10718;BME280;13513;42.700;23.124;2023-03-15T05:33:29;91710.27;;;5.66;63.17
10718;BME280;13513;42.700;23.124;2023-03-15T05:35:59;91693.63;;;5.79;59.95
10718;BME280;13513;42.700;23.124;2023-03-15T05:38:31;91687.50;;;5.93;58.09
10718;BME280;13513;42.700;23.124;2023-03-15T05:41:02;91696.27;;;6.03;58.64
10718;BME280;13513;42.700;23.124;2023-03-15T05:43:33;91690.51;;;6.06;58.05
10718;BME280;13513;42.700;23.124;2023-03-15T05:46:03;91683.58;;;6.22;57.30
10718;BME280;13513;42.700;23.124;2023-03-15T05:48:35;91686.67;;;6.48;55.94
10718;BME280;13513;42.700;23.124;2023-03-15T05:51:05;91668.95;;;6.70;53.40
10718;BME280;13513;42.700;23.124;2023-03-15T05:53:36;91655.41;;;6.85;54.23
10718;BME280;13513;42.700;23.124;2023-03-15T05:56:07;91665.27;;;7.15;53.25
10718;BME280;13513;42.700;23.124;2023-03-15T05:58:38;91670.38;;;7.44;51.66
10718;BME280;13513;42.700;23.124;2023-03-15T06:01:10;91675.19;;;7.72;52.23
10718;BME280;13513;42.700;23.124;2023-03-15T06:03:40;91671.51;;;7.80;52.40
10718;BME280;13513;42.700;23.124;2023-03-15T06:06:11;91676.03;;;7.92;52.34
10718;BME280;13513;42.700;23.124;2023-03-15T06:08:42;91668.93;;;8.13;51.26
10718;BME280;13513;42.700;23.124;2023-03-15T06:11:13;91685.00;;;8.14;48.74
10718;BME280;13513;42.700;23.124;2023-03-15T06:13:44;91681.08;;;8.21;48.31
10718;BME280;13513;42.700;23.124;2023-03-15T06:16:15;91678.45;;;8.42;48.28
10718;BME280;13513;42.700;23.124;2023-03-15T06:18:45;91671.08;;;8.49;47.95
10718;BME280;13513;42.700;23.124;2023-03-15T06:21:16;91674.47;;;8.97;46.58
10718;BME280;13513;42.700;23.124;2023-03-15T06:23:49;91685.27;;;9.71;46.18
10718;BME280;13513;42.700;23.124;2023-03-15T06:26:21;91681.05;;;10.26;42.78
10718;BME280;13513;42.700;23.124;2023-03-15T06:28:52;91682.24;;;9.98;42.61
10718;BME280;13513;42.700;23.124;2023-03-15T06:31:23;91683.48;;;9.62;43.88
10718;BME280;13513;42.700;23.124;2023-03-15T06:33:55;91685.72;;;9.25;44.52
10718;BME280;13513;42.700;23.124;2023-03-15T06:36:25;91681.99;;;9.31;45.55
10718;BME280;13513;42.700;23.124;2023-03-15T06:38:56;91684.03;;;9.51;45.94
10718;BME280;13513;42.700;23.124;2023-03-15T06:41:27;91689.02;;;9.58;44.62
10718;BME280;13513;42.700;23.124;2023-03-15T06:43:58;91683.00;;;9.52;45.37
10718;BME280;13513;42.700;23.124;2023-03-15T06:46:28;91682.06;;;9.16;45.26
10718;BME280;13513;42.700;23.124;2023-03-15T06:48:59;91684.20;;;8.86;47.33
10718;BME280;13513;42.700;23.124;2023-03-15T06:51:30;91674.20;;;8.81;46.58
10718;BME280;13513;42.700;23.124;2023-03-15T06:54:01;91677.20;;;9.48;45.95
10718;BME280;13513;42.700;23.124;2023-03-15T06:56:32;91673.05;;;10.67;43.73
10718;BME280;13513;42.700;23.124;2023-03-15T06:59:03;91679.86;;;11.56;40.68
10718;BME280;13513;42.700;23.124;2023-03-15T07:01:35;91671.51;;;11.47;41.31
10718;BME280;13513;42.700;23.124;2023-03-15T07:04:06;91666.95;;;12.34;40.71
10718;BME280;13513;42.700;23.124;2023-03-15T07:06:37;91663.60;;;12.95;38.57
10718;BME280;13513;42.700;23.124;2023-03-15T07:09:07;91665.78;;;12.59;39.13
10718;BME280;13513;42.700;23.124;2023-03-15T07:11:39;91664.06;;;12.14;39.96
10718;BME280;13513;42.700;23.124;2023-03-15T07:14:10;91669.41;;;12.09;39.41
10718;BME280;13513;42.700;23.124;2023-03-15T07:16:40;91679.62;;;11.53;40.17
10718;BME280;13513;42.700;23.124;2023-03-15T07:19:11;91673.12;;;11.19;41.64
10718;BME280;13513;42.700;23.124;2023-03-15T07:21:41;91675.45;;;10.33;42.21
10718;BME280;13513;42.700;23.124;2023-03-15T07:24:12;91677.56;;;9.16;45.36
10718;BME280;13513;42.700;23.124;2023-03-15T07:26:43;91664.97;;;9.72;45.24
10718;BME280;13513;42.700;23.124;2023-03-15T07:29:13;91668.69;;;10.84;42.36
10718;BME280;13513;42.700;23.124;2023-03-15T07:31:44;91669.34;;;11.75;39.85
10718;BME280;13513;42.700;23.124;2023-03-15T07:34:15;91654.52;;;11.95;40.22
10718;BME280;13513;42.700;23.124;2023-03-15T07:36:46;91659.02;;;11.50;41.60
10718;BME280;13513;42.700;23.124;2023-03-15T07:39:17;91662.05;;;12.76;40.71
10718;BME280;13513;42.700;23.124;2023-03-15T07:41:48;91656.39;;;13.84;37.28
10718;BME280;13513;42.700;23.124;2023-03-15T07:44:19;91642.95;;;14.65;36.43
10718;BME280;13513;42.700;23.124;2023-03-15T07:46:49;91648.98;;;15.93;35.05
10718;BME280;13513;42.700;23.124;2023-03-15T07:49:19;91659.40;;;16.20;33.80
10718;BME280;13513;42.700;23.124;2023-03-15T07:51:50;91648.50;;;16.47;33.28
10718;BME280;13513;42.700;23.124;2023-03-15T07:54:21;91647.09;;;16.92;32.82
10718;BME280;13513;42.700;23.124;2023-03-15T07:56:51;91646.33;;;17.86;32.13
10718;BME280;13513;42.700;23.124;2023-03-15T07:59:22;91645.95;;;17.82;31.11
10718;BME280;13513;42.700;23.124;2023-03-15T08:01:53;91638.78;;;17.65;30.29
10718;BME280;13513;42.700;23.124;2023-03-15T08:04:24;91635.14;;;17.07;31.20
10718;BME280;13513;42.700;23.124;2023-03-15T08:06:55;91630.91;;;16.80;32.40
10718;BME280;13513;42.700;23.124;2023-03-15T08:09:26;91631.13;;;17.38;31.69
10718;BME280;13513;42.700;23.124;2023-03-15T08:11:56;91631.63;;;16.92;32.44
10718;BME280;13513;42.700;23.124;2023-03-15T08:14:30;91629.03;;;16.10;32.48
10718;BME280;13513;42.700;23.124;2023-03-15T08:17:02;91637.08;;;15.71;34.10
10718;BME280;13513;42.700;23.124;2023-03-15T08:19:33;91642.06;;;15.33;34.37
10718;BME280;13513;42.700;23.124;2023-03-15T08:22:05;91645.84;;;14.66;35.01
10718;BME280;13513;42.700;23.124;2023-03-15T08:24:36;91636.70;;;15.36;34.76
10718;BME280;13513;42.700;23.124;2023-03-15T08:27:13;91636.91;;;16.15;34.26
10718;BME280;13513;42.700;23.124;2023-03-15T08:29:44;91631.53;;;17.74;30.71
10718;BME280;13513;42.700;23.124;2023-03-15T08:32:19;91619.28;;;19.34;30.05
10718;BME280;13513;42.700;23.124;2023-03-15T08:34:53;91620.27;;;19.80;28.95
10718;BME280;13513;42.700;23.124;2023-03-15T08:37:24;91621.52;;;20.43;28.38
10718;BME280;13513;42.700;23.124;2023-03-15T08:39:55;91618.14;;;20.64;28.04
10718;BME280;13513;42.700;23.124;2023-03-15T08:42:27;91615.81;;;19.84;28.93
10718;BME280;13513;42.700;23.124;2023-03-15T08:44:58;91619.20;;;17.36;31.52
10718;BME280;13513;42.700;23.124;2023-03-15T08:47:29;91617.09;;;16.27;33.47
10718;BME280;13513;42.700;23.124;2023-03-15T08:50:00;91610.34;;;16.30;33.27
10718;BME280;13513;42.700;23.124;2023-03-15T08:52:32;91605.61;;;15.53;34.29
10718;BME280;13513;42.700;23.124;2023-03-15T08:55:02;91608.22;;;17.98;32.93
10718;BME280;13513;42.700;23.124;2023-03-15T08:57:34;91608.97;;;18.36;30.59
10718;BME280;13513;42.700;23.124;2023-03-15T09:00:05;91601.63;;;16.27;33.68
10718;BME280;13513;42.700;23.124;2023-03-15T09:02:37;91606.48;;;14.08;36.40
10718;BME280;13513;42.700;23.124;2023-03-15T09:05:09;91609.47;;;12.99;38.90
10718;BME280;13513;42.700;23.124;2023-03-15T09:07:40;91610.48;;;13.30;38.65
10718;BME280;13513;42.700;23.124;2023-03-15T09:10:11;91620.23;;;13.61;37.76
10718;BME280;13513;42.700;23.124;2023-03-15T09:12:46;91626.69;;;13.01;39.37
10718;BME280;13513;42.700;23.124;2023-03-15T09:15:20;91618.92;;;12.89;39.82
10718;BME280;13513;42.700;23.124;2023-03-15T09:17:53;91611.16;;;12.92;39.28
10718;BME280;13513;42.700;23.124;2023-03-15T09:20:24;91612.17;;;12.32;40.27
10718;BME280;13513;42.700;23.124;2023-03-15T09:22:56;91610.57;;;11.96;41.83
10718;BME280;13513;42.700;23.124;2023-03-15T09:25:26;91615.38;;;11.29;43.38
10718;BME280;13513;42.700;23.124;2023-03-15T09:27:55;91618.05;;;11.26;43.57
10718;BME280;13513;42.700;23.124;2023-03-15T09:30:26;91627.81;;;11.05;44.11
10718;BME280;13513;42.700;23.124;2023-03-15T09:32:58;91613.77;;;10.83;44.71
10718;BME280;13513;42.700;23.124;2023-03-15T09:35:29;91600.73;;;10.66;45.31
10718;BME280;13513;42.700;23.124;2023-03-15T09:38:02;91604.33;;;10.98;45.54
10718;BME280;13513;42.700;23.124;2023-03-15T09:40:39;91604.14;;;11.18;43.75
10718;BME280;13513;42.700;23.124;2023-03-15T09:45:58;91586.36;;;11.00;44.29
10718;BME280;13513;42.700;23.124;2023-03-15T09:51:27;91594.80;;;10.76;45.46
10718;BME280;13513;42.700;23.124;2023-03-15T09:54:03;91589.80;;;10.75;44.98
10718;BME280;13513;42.700;23.124;2023-03-15T09:56:55;91592.91;;;10.82;45.06
10718;BME280;13513;42.700;23.124;2023-03-15T09:59:29;91595.66;;;11.19;44.30
10718;BME280;13513;42.700;23.124;2023-03-15T10:02:00;91607.96;;;11.52;43.89
10718;BME280;13513;42.700;23.124;2023-03-15T10:04:32;91608.17;;;11.34;44.15
10718;BME280;13513;42.700;23.124;2023-03-15T10:07:04;91598.15;;;11.52;44.14
10718;BME280;13513;42.700;23.124;2023-03-15T10:09:36;91606.99;;;11.45;44.89
10718;BME280;13513;42.700;23.124;2023-03-15T10:12:22;91603.75;;;11.48;45.20
10718;BME280;13513;42.700;23.124;2023-03-15T10:20:16;91607.88;;;13.14;41.41
10718;BME280;13513;42.700;23.124;2023-03-15T10:25:33;91596.01;;;13.38;40.80
10718;BME280;13513;42.700;23.124;2023-03-15T10:30:51;91602.94;;;12.78;42.00
10718;BME280;13513;42.700;23.124;2023-03-15T10:33:37;91596.81;;;11.97;43.70
10718;BME280;13513;42.700;23.124;2023-03-15T10:36:17;91587.20;;;12.19;44.40
10718;BME280;13513;42.700;23.124;2023-03-15T10:38:47;91594.39;;;12.51;44.25
10718;BME280;13513;42.700;23.124;2023-03-15T10:41:41;91597.14;;;12.44;44.34
10718;BME280;13513;42.700;23.124;2023-03-15T10:44:14;91604.52;;;11.93;45.17
10718;BME280;13513;42.700;23.124;2023-03-15T10:47:04;91603.67;;;11.56;46.05
10718;BME280;13513;42.700;23.124;2023-03-15T10:49:36;91606.88;;;11.53;47.89
10718;BME280;13513;42.700;23.124;2023-03-15T10:52:23;91606.61;;;11.33;47.13
10718;BME280;13513;42.700;23.124;2023-03-15T10:54:39;91605.00;;;11.56;48.10
10718;BME280;13513;42.700;23.124;2023-03-15T10:57:16;91597.26;;;11.64;48.74
10718;BME280;13513;42.700;23.124;2023-03-15T10:59:56;91606.19;;;11.45;47.60
10718;BME280;13513;42.700;23.124;2023-03-15T11:02:26;91614.82;;;11.32;48.23
10718;BME280;13513;42.700;23.124;2023-03-15T11:05:14;91616.48;;;10.73;50.44
10718;BME280;13513;42.700;23.124;2023-03-15T11:07:54;91597.91;;;10.21;51.11
10718;BME280;13513;42.700;23.124;2023-03-15T11:10:32;91598.72;;;9.83;52.89
10718;BME280;13513;42.700;23.124;2023-03-15T11:13:17;91601.20;;;9.62;54.54
10718;BME280;13513;42.700;23.124;2023-03-15T11:16:01;91602.78;;;9.61;54.89
10718;BME280;13513;42.700;23.124;2023-03-15T11:21:22;91592.30;;;9.53;56.75
10718;BME280;13513;42.700;23.124;2023-03-15T11:23:53;91597.88;;;9.47;58.60
10718;BME280;13513;42.700;23.124;2023-03-15T11:26:26;91598.84;;;9.00;59.89
10718;BME280;13513;42.700;23.124;2023-03-15T11:28:58;91591.43;;;9.09;61.15
10718;BME280;13513;42.700;23.124;2023-03-15T11:31:30;91596.13;;;9.17;61.60
10718;BME280;13513;42.700;23.124;2023-03-15T11:34:10;91597.73;;;9.13;65.58
10718;BME280;13513;42.700;23.124;2023-03-15T11:36:41;91595.11;;;9.11;68.58
10718;BME280;13513;42.700;23.124;2023-03-15T11:39:18;91589.10;;;9.00;70.63
10718;BME280;13513;42.700;23.124;2023-03-15T11:42:04;91579.39;;;8.91;71.26
10718;BME280;13513;42.700;23.124;2023-03-15T11:44:46;91581.48;;;8.94;72.10
10718;BME280;13513;42.700;23.124;2023-03-15T11:47:25;91578.83;;;8.99;70.60
10718;BME280;13513;42.700;23.124;2023-03-15T11:49:56;91583.09;;;8.90;68.38
10718;BME280;13513;42.700;23.124;2023-03-15T11:52:28;91588.33;;;8.95;69.75
10718;BME280;13513;42.700;23.124;2023-03-15T11:55:00;91580.15;;;8.99;66.97
10718;BME280;13513;42.700;23.124;2023-03-15T11:57:47;91579.29;;;9.18;66.55
10718;BME280;13513;42.700;23.124;2023-03-15T12:06:37;91577.36;;;9.34;60.28
10718;BME280;13513;42.700;23.124;2023-03-15T12:14:45;91569.70;;;9.83;56.10
10718;BME280;13513;42.700;23.124;2023-03-15T12:17:36;91574.20;;;9.80;55.63
10718;BME280;13513;42.700;23.124;2023-03-15T12:22:44;91563.52;;;9.98;56.59
10718;BME280;13513;42.700;23.124;2023-03-15T12:25:29;91554.77;;;10.05;58.80
10718;BME280;13513;42.700;23.124;2023-03-15T12:27:49;91561.13;;;9.99;56.97
10718;BME280;13513;42.700;23.124;2023-03-15T12:30:29;91555.52;;;9.72;57.25
10718;BME280;13513;42.700;23.124;2023-03-15T12:33:02;91555.11;;;9.55;58.76
10718;BME280;13513;42.700;23.124;2023-03-15T12:35:39;91552.87;;;9.33;59.23
10718;BME280;13513;42.700;23.124;2023-03-15T12:38:15;91555.20;;;9.35;62.78
10718;BME280;13513;42.700;23.124;2023-03-15T12:40:52;91556.83;;;9.33;63.55
10718;BME280;13513;42.700;23.124;2023-03-15T12:46:06;91559.27;;;9.20;66.49
10718;BME280;13513;42.700;23.124;2023-03-15T12:48:37;91561.58;;;9.29;64.50
10718;BME280;13513;42.700;23.124;2023-03-15T12:51:10;91557.58;;;9.36;64.94
10718;BME280;13513;42.700;23.124;2023-03-15T12:53:43;91565.18;;;8.87;64.99
10718;BME280;13513;42.700;23.124;2023-03-15T12:58:52;91561.13;;;9.14;65.00
10718;BME280;13513;42.700;23.124;2023-03-15T13:01:23;91559.55;;;9.11;64.30
10718;BME280;13513;42.700;23.124;2023-03-15T13:03:59;91559.45;;;9.31;66.49
10718;BME280;13513;42.700;23.124;2023-03-15T13:06:53;91564.72;;;9.31;64.97
10718;BME280;13513;42.700;23.124;2023-03-15T13:09:43;91558.09;;;9.41;63.59
10718;BME280;13513;42.700;23.124;2023-03-15T13:12:25;91558.92;;;9.31;60.05
10718;BME280;13513;42.700;23.124;2023-03-15T13:15:07;91555.92;;;8.99;60.77
10718;BME280;13513;42.700;23.124;2023-03-15T13:17:56;91569.27;;;9.18;59.82
10718;BME280;13513;42.700;23.124;2023-03-15T13:20:37;91562.68;;;9.18;59.53
10718;BME280;13513;42.700;23.124;2023-03-15T13:23:25;91561.72;;;8.96;59.60
10718;BME280;13513;42.700;23.124;2023-03-15T13:25:58;91573.59;;;8.86;59.96
10718;BME280;13513;42.700;23.124;2023-03-15T13:28:33;91585.78;;;8.70;61.56
10718;BME280;13513;42.700;23.124;2023-03-15T13:31:19;91581.54;;;8.71;63.14
10718;BME280;13513;42.700;23.124;2023-03-15T13:33:52;91573.91;;;8.75;65.24
10718;BME280;13513;42.700;23.124;2023-03-15T13:36:45;91582.63;;;8.55;63.98
10718;BME280;13513;42.700;23.124;2023-03-15T13:39:20;91579.78;;;8.47;66.34
10718;BME280;13513;42.700;23.124;2023-03-15T13:41:58;91581.59;;;8.59;66.47
10718;BME280;13513;42.700;23.124;2023-03-15T13:44:32;91581.05;;;8.59;67.16
10718;BME280;13513;42.700;23.124;2023-03-15T13:47:08;91583.70;;;8.54;67.23
10718;BME280;13513;42.700;23.124;2023-03-15T13:49:41;91592.14;;;8.36;67.93
10718;BME280;13513;42.700;23.124;2023-03-15T13:52:14;91584.51;;;8.42;69.31
10718;BME280;13513;42.700;23.124;2023-03-15T13:54:47;91575.57;;;8.38;67.93
10718;BME280;13513;42.700;23.124;2023-03-15T13:57:20;91574.51;;;8.39;68.62
10718;BME280;13513;42.700;23.124;2023-03-15T14:00:02;91588.20;;;8.33;69.33
10718;BME280;13513;42.700;23.124;2023-03-15T14:02:51;91593.74;;;8.24;69.55
10718;BME280;13513;42.700;23.124;2023-03-15T14:05:27;91598.74;;;8.26;70.53
10718;BME280;13513;42.700;23.124;2023-03-15T14:08:01;91595.03;;;8.19;72.10
10718;BME280;13513;42.700;23.124;2023-03-15T14:10:35;91593.74;;;8.24;73.90
10718;BME280;13513;42.700;23.124;2023-03-15T14:16:02;91593.46;;;8.08;74.55